createdAt,value
2017-10-09T00:01:53.037Z,5.30
2017-10-09T00:04:21.270Z,5.37
2017-10-09T00:06:48.741Z,5.97
2017-10-09T00:09:16.198Z,5.00
2017-10-09T00:11:43.669Z,5.00
2017-10-09T00:14:11.153Z,5.47
2017-10-09T00:16:38.600Z,5.67
2017-10-09T00:19:06.053Z,6.07
2017-10-09T00:21:33.549Z,6.10
2017-10-09T00:24:01.002Z,5.80
2017-10-09T00:26:28.454Z,5.23
2017-10-09T00:28:56.014Z,5.00
2017-10-09T00:31:24.234Z,5.60
2017-10-09T00:33:51.700Z,4.90
2017-10-09T00:36:19.912Z,5.80
2017-10-09T00:38:47.385Z,5.20
2017-10-09T00:41:14.845Z,5.10
2017-10-09T00:43:42.313Z,6.00
2017-10-09T00:46:09.791Z,5.17
2017-10-09T00:48:37.234Z,5.03
2017-10-09T00:51:04.718Z,5.37
2017-10-09T00:53:32.197Z,5.60
2017-10-09T00:55:59.641Z,4.90
2017-10-09T00:58:27.149Z,5.70
2017-10-09T01:00:54.597Z,5.57
2017-10-09T01:03:22.853Z,5.10
2017-10-09T01:05:50.308Z,4.30
2017-10-09T01:08:17.821Z,4.60
2017-10-09T01:10:45.291Z,4.40
2017-10-09T01:13:12.761Z,4.90
2017-10-09T01:15:40.211Z,5.17
2017-10-09T01:18:07.681Z,4.57
2017-10-09T01:20:35.128Z,5.33
2017-10-09T01:23:02.618Z,4.80
2017-10-09T01:25:30.065Z,4.80
2017-10-09T01:27:57.514Z,4.93
2017-10-09T01:30:24.986Z,4.53
2017-10-09T01:32:52.436Z,4.00
2017-10-09T01:35:19.913Z,4.80
2017-10-09T01:37:47.373Z,4.80
2017-10-09T01:40:14.857Z,5.20
2017-10-09T01:42:42.329Z,3.90
2017-10-09T01:45:09.773Z,4.47
2017-10-09T01:47:37.350Z,4.40
2017-10-09T01:50:04.798Z,4.13
2017-10-09T01:52:32.249Z,4.60
2017-10-09T01:54:59.729Z,4.63
2017-10-09T01:57:27.185Z,4.53
2017-10-09T01:59:54.669Z,4.17
2017-10-09T02:02:22.122Z,4.70
2017-10-09T02:04:49.573Z,4.10
2017-10-09T02:07:17.044Z,3.77
2017-10-09T02:09:44.534Z,3.73
2017-10-09T02:12:11.993Z,4.80
2017-10-09T02:14:39.441Z,4.43
2017-10-09T02:17:08.610Z,4.47
2017-10-09T02:19:36.153Z,4.30
2017-10-09T02:22:03.613Z,4.47
2017-10-09T02:24:31.081Z,4.00
2017-10-09T02:26:58.561Z,4.10
2017-10-09T02:29:26.012Z,4.13
2017-10-09T02:31:53.662Z,3.50
2017-10-09T02:34:21.110Z,4.10
2017-10-09T02:36:48.573Z,4.07
2017-10-09T02:39:16.049Z,4.10
2017-10-09T02:41:43.521Z,3.83
2017-10-09T02:44:10.977Z,4.10
2017-10-09T02:46:39.257Z,4.07
2017-10-09T02:49:06.726Z,4.13
2017-10-09T02:51:34.177Z,3.70
2017-10-09T02:54:01.669Z,4.07
2017-10-09T02:56:29.124Z,4.57
2017-10-09T02:58:56.582Z,4.03
2017-10-09T03:01:24.056Z,3.73
2017-10-09T03:03:51.507Z,4.20
2017-10-09T03:06:18.989Z,3.40
2017-10-09T03:08:46.445Z,3.57
2017-10-09T03:11:13.900Z,4.10
2017-10-09T03:13:41.374Z,3.50
2017-10-09T03:16:08.985Z,3.47
2017-10-09T03:18:36.466Z,3.63
2017-10-09T03:21:03.929Z,3.43
2017-10-09T03:23:32.306Z,3.30
2017-10-09T03:25:59.747Z,4.10
2017-10-09T03:31:30.116Z,4.10
2017-10-09T03:33:57.569Z,4.20
2017-10-09T03:36:25.062Z,4.07
2017-10-09T03:38:52.541Z,3.10
2017-10-09T03:41:20.766Z,3.83
2017-10-09T03:43:48.295Z,3.43
2017-10-09T03:46:16.521Z,3.60
2017-10-09T03:48:43.993Z,3.90
2017-10-09T03:51:11.466Z,3.57
2017-10-09T03:53:39.836Z,4.20
2017-10-09T03:56:07.317Z,3.27
2017-10-09T03:58:34.765Z,3.53
2017-10-09T04:01:03.018Z,3.57
2017-10-09T04:03:30.489Z,4.00
2017-10-09T04:05:57.966Z,3.50
2017-10-09T04:08:25.517Z,4.00
2017-10-09T04:10:52.975Z,3.70
2017-10-09T04:13:20.450Z,3.30
2017-10-09T04:15:48.668Z,3.30
2017-10-09T04:18:16.141Z,4.33
2017-10-09T04:20:44.353Z,3.30
2017-10-09T04:23:11.829Z,3.27
2017-10-09T04:25:40.989Z,3.07
2017-10-09T04:28:08.468Z,3.10
2017-10-09T04:30:36.729Z,2.70
2017-10-09T04:33:04.201Z,2.93
2017-10-09T04:35:32.449Z,2.90
2017-10-09T04:37:59.918Z,3.23
2017-10-09T04:40:27.392Z,2.90
2017-10-09T04:42:55.618Z,3.07
2017-10-09T04:45:23.081Z,2.93
2017-10-09T04:47:50.573Z,2.50
2017-10-09T04:50:18.025Z,2.43
2017-10-09T04:52:45.482Z,2.33
2017-10-09T04:55:12.952Z,2.30
2017-10-09T04:57:41.009Z,2.58
2017-10-09T05:00:08.528Z,2.37
2017-10-09T05:02:35.982Z,2.57
2017-10-09T05:05:03.442Z,2.77
2017-10-09T05:07:31.686Z,2.10
2017-10-09T05:09:59.917Z,2.30
2017-10-09T05:12:27.372Z,2.67
2017-10-09T05:14:54.849Z,2.80
2017-10-09T05:17:22.306Z,2.63
2017-10-09T05:19:49.781Z,2.60
2017-10-09T05:22:17.233Z,2.00
2017-10-09T05:24:44.705Z,2.97
2017-10-09T05:27:12.945Z,2.77
2017-10-09T05:29:40.453Z,3.00
2017-10-09T05:32:08.677Z,3.00
2017-10-09T05:34:36.160Z,3.50
2017-10-09T05:37:03.617Z,2.47
2017-10-09T05:39:31.152Z,2.97
2017-10-09T05:41:58.624Z,3.43
2017-10-09T05:44:26.106Z,3.40
2017-10-09T05:46:53.598Z,3.73
2017-10-09T05:49:21.070Z,3.67
2017-10-09T05:51:48.533Z,4.23
2017-10-09T05:54:16.009Z,4.10
2017-10-09T05:56:44.253Z,3.93
2017-10-09T05:59:13.249Z,3.92
2017-10-09T06:01:40.705Z,4.40
2017-10-09T06:04:08.159Z,4.07
2017-10-09T06:06:35.645Z,6.03
2017-10-09T06:09:03.101Z,4.50
2017-10-09T06:11:30.562Z,4.27
2017-10-09T06:13:58.053Z,5.43
2017-10-09T06:16:25.510Z,4.57
2017-10-09T06:18:52.973Z,5.00
2017-10-09T06:21:20.466Z,4.80
2017-10-09T06:23:47.913Z,5.87
2017-10-09T06:26:15.388Z,5.90
2017-10-09T06:28:43.744Z,5.27
2017-10-09T06:31:11.226Z,6.83
2017-10-09T06:33:38.704Z,5.90
2017-10-09T06:36:06.153Z,5.90
2017-10-09T06:38:33.620Z,5.90
2017-10-09T06:41:01.104Z,7.07
2017-10-09T06:43:28.561Z,6.20
2017-10-09T06:45:56.017Z,5.77
2017-10-09T06:48:23.489Z,6.47
2017-10-09T06:50:51.745Z,6.33
2017-10-09T06:53:19.197Z,6.27
2017-10-09T06:55:46.650Z,5.20
2017-10-09T06:58:14.142Z,5.37
2017-10-09T07:00:41.601Z,4.90
2017-10-09T07:03:09.829Z,5.80
2017-10-09T07:05:37.330Z,5.00
2017-10-09T07:08:04.790Z,5.00
2017-10-09T07:10:32.249Z,5.70
2017-10-09T07:12:59.725Z,5.30
2017-10-09T07:15:27.185Z,6.67
2017-10-09T07:17:54.675Z,6.10
2017-10-09T07:20:22.193Z,5.57
2017-10-09T07:22:50.436Z,5.30
2017-10-09T07:25:17.901Z,5.00
2017-10-09T07:27:45.368Z,5.07
2017-10-09T07:30:12.844Z,4.77
2017-10-09T07:32:41.077Z,5.00
2017-10-09T07:35:08.549Z,5.60
2017-10-09T07:37:36.007Z,5.43
2017-10-09T07:40:03.468Z,5.30
2017-10-09T07:42:30.948Z,5.57
2017-10-09T07:44:59.201Z,4.70
2017-10-09T07:47:26.653Z,5.53
2017-10-09T07:49:54.134Z,6.10
2017-10-09T07:52:22.377Z,6.73
2017-10-09T07:54:49.865Z,6.10
2017-10-09T07:57:18.233Z,5.63
2017-10-09T07:59:45.685Z,5.53
2017-10-09T08:02:13.169Z,5.93
2017-10-09T08:04:40.617Z,5.70
2017-10-09T08:07:08.094Z,6.33
2017-10-09T08:09:35.545Z,5.53
2017-10-09T08:12:03.042Z,6.50
2017-10-09T08:14:30.500Z,7.10
2017-10-09T08:16:57.953Z,6.30
2017-10-09T08:19:25.517Z,6.17
2017-10-09T08:21:52.973Z,6.65
2017-10-09T08:24:20.434Z,5.87
2017-10-09T08:26:47.949Z,5.73
2017-10-09T08:29:15.396Z,6.00
2017-10-09T08:31:42.861Z,6.30
2017-10-09T08:34:10.358Z,7.00
2017-10-09T08:36:37.812Z,5.87
2017-10-09T08:39:05.260Z,6.90
2017-10-09T08:41:32.748Z,6.60
2017-10-09T08:44:00.212Z,7.60
2017-10-09T08:46:27.673Z,7.30
2017-10-09T08:48:56.026Z,9.10
2017-10-09T08:51:23.484Z,8.73
2017-10-09T08:53:50.987Z,8.03
2017-10-09T08:56:18.449Z,7.60
2017-10-09T08:58:45.909Z,8.67
2017-10-09T09:01:13.396Z,8.50
2017-10-09T09:03:40.854Z,8.27
2017-10-09T09:06:08.321Z,7.93
2017-10-09T09:08:35.797Z,9.43
2017-10-09T09:11:03.285Z,10.03
2017-10-09T09:13:30.768Z,9.50
2017-10-09T09:15:58.277Z,9.40
2017-10-09T09:18:25.740Z,9.90
2017-10-09T09:20:53.196Z,10.97
2017-10-09T09:23:20.672Z,10.07
2017-10-09T09:25:48.153Z,9.90
2017-10-09T09:28:16.305Z,11.73
2017-10-09T09:30:43.785Z,9.97
2017-10-09T09:33:11.244Z,11.00
2017-10-09T09:35:38.736Z,9.90
2017-10-09T09:38:06.197Z,9.50
2017-10-09T09:40:33.653Z,9.30
2017-10-09T09:43:01.146Z,10.60
2017-10-09T09:45:28.621Z,10.20
2017-10-09T09:47:56.079Z,11.50
2017-10-09T09:50:23.581Z,11.20
2017-10-09T09:52:51.045Z,12.93
2017-10-09T09:55:18.501Z,12.30
2017-10-09T09:57:46.907Z,12.63
2017-10-09T10:00:14.394Z,13.10
2017-10-09T10:02:41.849Z,14.30
2017-10-09T10:05:09.317Z,11.77
2017-10-09T10:07:36.793Z,14.57
2017-10-09T10:10:04.254Z,12.30
2017-10-09T10:12:32.510Z,11.00
2017-10-09T10:14:59.974Z,13.43
2017-10-09T10:17:27.470Z,11.10
2017-10-09T10:19:54.924Z,12.83
2017-10-09T10:22:22.381Z,10.20
2017-10-09T10:24:49.866Z,12.33
2017-10-09T10:27:17.518Z,11.40
2017-10-09T10:29:44.984Z,13.27
2017-10-09T10:32:12.481Z,12.80
2017-10-09T10:34:39.947Z,12.87
2017-10-09T10:37:07.404Z,11.77
2017-10-09T10:39:34.902Z,10.87
2017-10-09T10:42:02.390Z,13.13
2017-10-09T10:44:29.844Z,12.90
2017-10-09T10:46:57.333Z,12.30
2017-10-09T10:49:24.793Z,11.57
2017-10-09T10:51:52.256Z,13.77
2017-10-09T10:54:19.733Z,12.67
2017-10-09T10:56:48.685Z,13.03
2017-10-09T10:59:16.160Z,13.70
2017-10-09T11:01:43.629Z,13.03
2017-10-09T11:04:11.880Z,12.77
2017-10-09T11:06:39.349Z,12.00
2017-10-09T11:09:06.849Z,12.40
2017-10-09T11:11:34.350Z,13.10
2017-10-09T11:14:01.805Z,14.07
2017-10-09T11:16:29.291Z,14.73
2017-10-09T11:18:56.746Z,13.30
2017-10-09T11:21:24.247Z,15.90
2017-10-09T11:23:51.700Z,17.87
2017-10-09T11:26:19.153Z,15.07
2017-10-09T11:28:46.633Z,15.83
2017-10-09T11:31:14.098Z,16.13
2017-10-09T11:33:41.729Z,17.15
2017-10-09T11:36:09.185Z,18.80
2017-10-09T11:38:36.745Z,16.13
2017-10-09T11:41:04.229Z,20.53
2017-10-09T11:43:31.696Z,22.90
2017-10-09T11:45:59.204Z,21.60
2017-10-09T11:48:26.673Z,23.03
2017-10-09T11:50:54.139Z,22.47
2017-10-09T11:53:21.637Z,28.77
2017-10-09T11:55:49.086Z,28.27
2017-10-09T11:58:16.577Z,30.13
2017-10-09T12:00:44.053Z,28.90
2017-10-09T12:03:12.282Z,32.10
2017-10-09T12:05:39.757Z,29.47
2017-10-09T12:08:07.209Z,34.73
2017-10-09T12:10:34.692Z,39.17
2017-10-09T12:13:02.145Z,38.90
2017-10-09T12:15:29.600Z,33.83
2017-10-09T12:17:57.076Z,36.80
2017-10-09T12:20:25.309Z,36.57
2017-10-09T12:22:52.794Z,38.53
2017-10-09T12:25:20.260Z,36.20
2017-10-09T12:27:47.709Z,38.50
2017-10-09T12:30:15.238Z,39.37
2017-10-09T12:32:42.689Z,36.67
2017-10-09T12:35:10.171Z,37.73
2017-10-09T12:37:37.645Z,39.90
2017-10-09T12:40:05.100Z,39.73
2017-10-09T12:42:32.583Z,41.67
2017-10-09T12:45:00.059Z,38.97
2017-10-09T12:47:27.509Z,44.83
2017-10-09T12:49:55.005Z,40.60
2017-10-09T12:52:22.456Z,43.07
2017-10-09T12:54:49.910Z,41.13
2017-10-09T12:57:17.549Z,43.10
2017-10-09T12:59:45.769Z,39.97
2017-10-09T13:02:13.249Z,41.83
2017-10-09T13:04:40.729Z,42.43
2017-10-09T13:07:08.974Z,43.93
2017-10-09T13:09:36.425Z,42.43
2017-10-09T13:12:03.907Z,40.17
2017-10-09T13:14:31.381Z,41.60
2017-10-09T13:16:58.832Z,40.37
2017-10-09T13:19:27.077Z,37.27
2017-10-09T13:21:54.553Z,41.43
2017-10-09T13:24:22.021Z,33.60
2017-10-09T13:26:50.990Z,38.80
2017-10-09T13:29:18.494Z,35.40
2017-10-09T13:31:45.949Z,41.17
2017-10-09T13:34:13.435Z,38.65
2017-10-09T13:36:40.946Z,39.40
2017-10-09T13:39:08.421Z,40.33
2017-10-09T13:41:35.873Z,37.50
2017-10-09T13:44:03.373Z,37.67
2017-10-09T13:46:30.868Z,40.07
2017-10-09T13:48:58.320Z,40.70
2017-10-09T13:51:25.784Z,43.23
2017-10-09T13:53:53.283Z,44.20
2017-10-09T13:56:20.765Z,40.07
2017-10-09T13:58:48.223Z,45.20
2017-10-09T14:01:15.721Z,42.40
2017-10-09T14:03:43.219Z,42.50
2017-10-09T14:06:10.693Z,42.20
2017-10-09T14:08:38.165Z,43.07
2017-10-09T14:11:05.649Z,37.60
2017-10-09T14:13:33.129Z,40.50
2017-10-09T14:16:01.357Z,37.77
2017-10-09T14:18:28.857Z,38.70
2017-10-09T14:20:57.081Z,34.13
2017-10-09T14:23:24.545Z,37.80
2017-10-09T14:25:52.192Z,29.30
2017-10-09T14:28:19.648Z,26.33
2017-10-09T14:30:47.120Z,28.83
2017-10-09T14:40:37.791Z,24.20
2017-10-09T14:43:05.280Z,27.80
2017-10-09T14:45:32.746Z,25.57
2017-10-09T14:48:00.966Z,31.07
2017-10-09T14:50:28.514Z,29.20
2017-10-09T14:52:55.962Z,29.23
2017-10-09T14:55:23.419Z,34.70
2017-10-09T14:57:52.541Z,32.05
2017-10-09T15:00:20.002Z,30.07
2017-10-09T15:02:47.469Z,23.97
2017-10-09T15:05:14.945Z,24.80
2017-10-09T15:07:42.434Z,30.70
2017-10-09T15:10:10.657Z,29.00
2017-10-09T15:12:38.117Z,31.30
2017-10-09T15:15:05.600Z,31.57
2017-10-09T15:17:33.058Z,30.60
2017-10-09T15:20:00.541Z,25.77
2017-10-09T15:22:28.005Z,30.50
2017-10-09T15:24:55.494Z,32.00
2017-10-09T15:27:22.973Z,31.17
2017-10-09T15:29:50.452Z,30.00
2017-10-09T15:32:17.944Z,26.17
2017-10-09T15:34:45.400Z,23.47
2017-10-09T15:37:12.857Z,14.67
2017-10-09T15:39:41.137Z,21.00
2017-10-09T15:42:08.987Z,21.00
2017-10-09T15:44:37.203Z,16.27
2017-10-09T15:47:04.706Z,17.23
2017-10-09T15:49:32.175Z,19.77
2017-10-09T15:52:00.398Z,19.97
2017-10-09T15:54:27.935Z,23.00
2017-10-09T15:56:55.334Z,20.00
2017-10-09T15:59:22.810Z,21.33
2017-10-09T16:01:50.301Z,21.00
2017-10-09T16:04:17.758Z,19.33
2017-10-09T16:06:45.991Z,19.10
2017-10-09T16:09:13.477Z,15.70
2017-10-09T16:11:41.705Z,19.57
2017-10-09T16:14:09.173Z,13.60
2017-10-09T16:16:36.662Z,14.87
2017-10-09T16:19:04.131Z,13.60
2017-10-09T16:21:32.353Z,13.40
2017-10-09T16:23:59.830Z,12.80
2017-10-09T16:26:27.322Z,11.70
2017-10-09T16:28:55.541Z,10.23
2017-10-09T16:31:23.161Z,8.77
2017-10-09T16:33:50.662Z,10.17
2017-10-09T16:36:18.198Z,11.00
2017-10-09T16:38:46.419Z,10.20
2017-10-09T16:41:13.950Z,10.97
2017-10-09T16:43:41.443Z,11.50
2017-10-09T16:46:08.913Z,13.83
2017-10-09T16:48:36.365Z,11.10
2017-10-09T16:51:03.849Z,11.13
2017-10-09T16:53:31.358Z,10.97
2017-10-09T16:55:58.830Z,10.30
2017-10-09T16:58:26.286Z,13.10
2017-10-09T17:00:53.782Z,12.73
2017-10-09T17:03:22.001Z,14.77
2017-10-09T17:05:49.455Z,13.23
2017-10-09T17:08:16.933Z,12.43
2017-10-09T17:10:44.390Z,12.73
2017-10-09T17:13:11.921Z,12.73
2017-10-09T17:15:39.533Z,13.23
2017-10-09T17:18:07.796Z,12.67
2017-10-09T17:20:35.282Z,14.97
2017-10-09T17:23:03.507Z,13.03
2017-10-09T17:25:30.988Z,12.53
2017-10-09T17:27:58.482Z,15.43
2017-10-09T17:30:27.040Z,12.30
2017-10-09T17:32:54.690Z,13.70
2017-10-09T17:35:22.185Z,14.47
2017-10-09T17:37:49.683Z,14.90
2017-10-09T17:40:17.204Z,15.73
2017-10-09T17:42:45.501Z,17.63
2017-10-09T17:45:12.977Z,17.00
2017-10-09T17:47:40.457Z,16.00
2017-10-09T17:50:07.933Z,18.63
2017-10-09T17:52:35.417Z,18.87
2017-10-09T17:55:03.645Z,18.50
2017-10-09T17:57:31.097Z,22.23
2017-10-09T17:59:58.574Z,20.27
2017-10-09T18:02:26.033Z,21.77
2017-10-09T18:04:53.489Z,20.50
2017-10-09T18:07:20.988Z,20.57
2017-10-09T18:09:49.224Z,21.90
2017-10-09T18:12:16.684Z,23.70
2017-10-09T18:14:44.160Z,24.03
2017-10-09T18:17:11.633Z,24.13
2017-10-09T18:19:39.864Z,24.40
2017-10-09T18:22:07.342Z,25.00
2017-10-09T18:24:34.825Z,23.47
2017-10-09T18:27:03.065Z,25.10
2017-10-09T18:29:30.540Z,25.63
2017-10-09T18:31:57.997Z,25.33
2017-10-09T18:34:25.465Z,32.27
2017-10-09T18:36:52.950Z,29.97
2017-10-09T18:39:20.513Z,27.50
2017-10-09T18:41:48.018Z,29.57
2017-10-09T18:44:15.496Z,29.57
2017-10-09T18:46:42.961Z,27.80
2017-10-09T18:49:10.479Z,33.83
2017-10-09T18:51:37.970Z,31.07
2017-10-09T18:54:05.485Z,30.47
2017-10-09T18:56:33.233Z,28.67
2017-10-09T18:59:00.757Z,29.33
2017-10-09T19:01:28.227Z,32.97
2017-10-09T19:03:56.006Z,36.50
2017-10-09T19:06:23.866Z,40.47
2017-10-09T19:08:51.637Z,37.20
2017-10-09T19:11:19.197Z,44.33
2017-10-09T19:13:47.185Z,41.35
2017-10-09T19:16:14.964Z,43.93
2017-10-09T19:18:42.558Z,44.87
2017-10-09T19:21:10.370Z,43.87
2017-10-09T19:23:37.864Z,41.67
2017-10-09T19:26:05.717Z,41.57
2017-10-09T19:28:33.435Z,40.97
2017-10-09T19:31:01.876Z,43.33
2017-10-09T19:33:29.383Z,45.00
2017-10-09T19:35:57.398Z,41.60
2017-10-09T19:38:25.193Z,44.17
2017-10-09T19:40:52.923Z,44.17
2017-10-09T19:43:20.573Z,39.73
2017-10-09T19:45:48.049Z,39.77
2017-10-09T19:48:15.804Z,43.90
2017-10-09T19:50:43.798Z,41.83
2017-10-09T19:53:11.671Z,42.77
2017-10-09T19:55:39.162Z,44.23
2017-10-09T19:58:07.455Z,44.23
2017-10-09T20:00:35.226Z,40.77
2017-10-09T20:03:02.717Z,41.20
2017-10-09T20:05:30.178Z,39.77
2017-10-09T20:07:57.628Z,36.07
2017-10-09T20:10:25.108Z,39.87
2017-10-09T20:12:52.570Z,33.40
2017-10-09T20:15:20.111Z,35.07
2017-10-09T20:17:47.567Z,33.67
2017-10-09T20:20:15.029Z,40.63
2017-10-09T20:22:42.514Z,37.07
2017-10-09T20:25:09.974Z,38.10
2017-10-09T20:27:37.458Z,39.00
2017-10-09T20:30:05.742Z,37.50
2017-10-09T20:32:33.218Z,36.90
2017-10-09T20:35:00.702Z,37.77
2017-10-09T20:37:28.159Z,39.33
2017-10-09T20:39:55.653Z,34.80
2017-10-09T20:42:23.113Z,37.97
2017-10-09T20:44:50.578Z,39.77
2017-10-09T20:47:18.080Z,33.47
2017-10-09T20:49:45.533Z,35.07
2017-10-09T20:52:13.018Z,33.50
2017-10-09T20:54:40.473Z,32.23
2017-10-09T20:57:07.941Z,33.30
2017-10-09T20:59:35.438Z,38.97
2017-10-09T21:02:02.907Z,33.57
2017-10-09T21:04:30.401Z,37.07
2017-10-09T21:06:57.874Z,37.17
2017-10-09T21:09:25.362Z,31.20
2017-10-09T21:11:53.601Z,33.83
2017-10-09T21:14:21.070Z,32.57
2017-10-09T21:16:48.544Z,33.80
2017-10-09T21:19:17.701Z,31.93
2017-10-09T21:21:45.181Z,30.57
2017-10-09T21:24:12.657Z,34.40
2017-10-09T21:26:40.889Z,33.60
2017-10-09T21:29:08.418Z,27.50
2017-10-09T21:31:35.873Z,27.93
2017-10-09T21:34:03.357Z,32.20
2017-10-09T21:36:30.816Z,23.00
2017-10-09T21:38:58.321Z,24.90
2017-10-09T21:41:25.781Z,20.27
2017-10-09T21:43:53.237Z,25.70
2017-10-09T21:46:20.721Z,22.63
2017-10-09T21:48:48.178Z,27.17
2017-10-09T21:51:15.665Z,25.57
2017-10-09T21:53:43.141Z,31.20
2017-10-09T21:56:10.701Z,29.07
2017-10-09T21:58:38.174Z,33.70
2017-10-09T22:01:05.634Z,31.73
2017-10-09T22:03:33.101Z,28.33
2017-10-09T22:06:00.613Z,22.83
2017-10-09T22:08:28.085Z,35.37
2017-10-09T22:10:55.573Z,35.80
2017-10-09T22:13:23.025Z,33.60
2017-10-09T22:15:50.641Z,36.97
2017-10-09T22:18:18.641Z,33.97
2017-10-09T22:20:46.150Z,35.07
2017-10-09T22:23:13.614Z,35.17
2017-10-09T22:25:41.113Z,32.63
2017-10-09T22:28:08.565Z,32.27
2017-10-09T22:30:36.058Z,33.53
2017-10-09T22:33:03.535Z,34.07
2017-10-09T22:35:31.797Z,37.93
2017-10-09T22:37:59.269Z,37.67
2017-10-09T22:40:27.497Z,40.13
2017-10-09T22:42:55.749Z,38.10
2017-10-09T22:45:23.217Z,42.07
2017-10-09T22:47:50.688Z,40.57
2017-10-09T22:50:18.211Z,41.33
2017-10-09T22:52:45.691Z,32.90
2017-10-09T22:55:13.165Z,36.90
2017-10-09T22:57:40.646Z,37.63
2017-10-09T23:00:08.106Z,35.17
2017-10-09T23:02:35.589Z,36.40
2017-10-09T23:05:03.075Z,34.47
2017-10-09T23:07:30.541Z,33.73
2017-10-09T23:09:58.054Z,36.00
2017-10-09T23:12:26.293Z,37.63
2017-10-09T23:14:53.774Z,35.50
2017-10-09T23:17:21.257Z,34.40
2017-10-09T23:19:50.425Z,35.73
2017-10-09T23:22:17.880Z,33.10
2017-10-09T23:24:45.368Z,35.07
2017-10-09T23:27:13.614Z,34.43
2017-10-09T23:29:41.073Z,33.40
2017-10-09T23:32:08.561Z,34.07
2017-10-09T23:34:36.022Z,37.53
2017-10-09T23:37:03.496Z,32.97
2017-10-09T23:39:30.978Z,36.90
2017-10-09T23:41:58.473Z,34.17
2017-10-09T23:44:25.954Z,35.90
2017-10-09T23:46:54.177Z,36.70
2017-10-09T23:49:21.706Z,36.17
2017-10-09T23:51:49.178Z,40.07
2017-10-09T23:54:16.650Z,36.10
2017-10-09T23:56:44.105Z,34.00
2017-10-09T23:59:11.592Z,37.87
